Terminal Aerodrome Forecast
Issued by NWS

Home | Current Version | Previous Version | Text Only | Print | Product List | Glossary On
Versions: 1 2 3 4 5 6 7 8 9 10 11 12 13
588
FTUS45 KVEF 241123
TAFVGT
TAF
KVGT 241123Z 2412/2512 08005KT P6SM SKC
     FM241800 16007KT P6SM SKC
     FM242200 22010G18KT P6SM FEW250
     FM250200 20008KT P6SM SKC=

USA.gov is the U.S. government's official web portal to all federal, state and local government web resources and services.